sensor_id;sensor_type;location;lat;lon;timestamp;pressure;altitude;pressure_sealevel;temperature;humidity
6528;BME280;64597;42.664;23.256;2023-02-19T00:01:06;94860.13;;;7.69;51.23
6528;BME280;64597;42.664;23.256;2023-02-19T00:03:32;94861.53;;;7.72;51.37
6528;BME280;64597;42.664;23.256;2023-02-19T00:06:00;94856.13;;;7.60;51.71
6528;BME280;64597;42.664;23.256;2023-02-19T00:08:28;94863.81;;;7.48;52.23
6528;BME280;64597;42.664;23.256;2023-02-19T00:10:54;94846.31;;;7.42;51.54
6528;BME280;64597;42.664;23.256;2023-02-19T00:13:23;94864.50;;;7.37;52.21
6528;BME280;64597;42.664;23.256;2023-02-19T00:15:49;94857.03;;;7.34;52.31
6528;BME280;64597;42.664;23.256;2023-02-19T00:18:14;94836.03;;;7.34;52.40
6528;BME280;64597;42.664;23.256;2023-02-19T00:20:40;94852.59;;;7.28;52.38
6528;BME280;64597;42.664;23.256;2023-02-19T00:23:05;94833.88;;;7.25;52.77
6528;BME280;64597;42.664;23.256;2023-02-19T00:25:30;94832.47;;;7.22;52.61
6528;BME280;64597;42.664;23.256;2023-02-19T00:27:56;94831.25;;;7.18;52.69
6528;BME280;64597;42.664;23.256;2023-02-19T00:30:24;94818.38;;;7.17;52.77
6528;BME280;64597;42.664;23.256;2023-02-19T00:32:50;94808.34;;;7.01;52.69
6528;BME280;64597;42.664;23.256;2023-02-19T00:35:15;94827.63;;;7.19;53.00
6528;BME280;64597;42.664;23.256;2023-02-19T00:37:41;94823.16;;;7.26;52.80
6528;BME280;64597;42.664;23.256;2023-02-19T00:40:07;94830.88;;;7.21;52.66
6528;BME280;64597;42.664;23.256;2023-02-19T00:42:32;94820.78;;;7.18;52.72
6528;BME280;64597;42.664;23.256;2023-02-19T00:44:58;94828.03;;;7.16;52.75
6528;BME280;64597;42.664;23.256;2023-02-19T00:47:23;94825.25;;;7.11;52.88
6528;BME280;64597;42.664;23.256;2023-02-19T00:49:48;94810.91;;;7.07;53.27
6528;BME280;64597;42.664;23.256;2023-02-19T00:52:14;94805.06;;;7.05;53.27
6528;BME280;64597;42.664;23.256;2023-02-19T00:54:39;94792.63;;;6.94;53.26
6528;BME280;64597;42.664;23.256;2023-02-19T00:57:05;94802.44;;;7.12;52.61
6528;BME280;64597;42.664;23.256;2023-02-19T00:59:30;94799.81;;;7.05;53.56
6528;BME280;64597;42.664;23.256;2023-02-19T01:01:56;94793.00;;;7.04;53.35
6528;BME280;64597;42.664;23.256;2023-02-19T01:04:21;94785.16;;;6.91;53.83
6528;BME280;64597;42.664;23.256;2023-02-19T01:06:46;94785.59;;;6.88;54.08
6528;BME280;64597;42.664;23.256;2023-02-19T01:09:13;94778.91;;;6.92;54.14
6528;BME280;64597;42.664;23.256;2023-02-19T01:11:38;94780.94;;;6.97;53.87
6528;BME280;64597;42.664;23.256;2023-02-19T01:14:04;94761.56;;;6.91;53.31
6528;BME280;64597;42.664;23.256;2023-02-19T01:16:29;94766.00;;;6.97;53.92
6528;BME280;64597;42.664;23.256;2023-02-19T01:18:56;94795.47;;;6.86;54.45
6528;BME280;64597;42.664;23.256;2023-02-19T01:21:23;94787.78;;;6.91;53.71
6528;BME280;64597;42.664;23.256;2023-02-19T01:23:50;94803.09;;;6.94;54.02
6528;BME280;64597;42.664;23.256;2023-02-19T01:26:25;94789.66;;;6.71;54.47
6528;BME280;64597;42.664;23.256;2023-02-19T01:28:51;94806.78;;;6.80;54.45
6528;BME280;64597;42.664;23.256;2023-02-19T01:31:18;94805.56;;;6.83;54.37
6528;BME280;64597;42.664;23.256;2023-02-19T01:33:52;94814.78;;;6.98;53.96
6528;BME280;64597;42.664;23.256;2023-02-19T01:36:18;94818.22;;;6.92;53.78
6528;BME280;64597;42.664;23.256;2023-02-19T01:38:44;94817.22;;;6.93;53.67
6528;BME280;64597;42.664;23.256;2023-02-19T01:41:14;94829.25;;;7.07;52.95
6528;BME280;64597;42.664;23.256;2023-02-19T01:46:42;94813.16;;;6.97;52.99
6528;BME280;64597;42.664;23.256;2023-02-19T01:49:22;94865.34;;;7.18;52.64
6528;BME280;64597;42.664;23.256;2023-02-19T01:51:54;94852.22;;;7.18;52.75
6528;BME280;64597;42.664;23.256;2023-02-19T01:54:24;94840.75;;;7.13;52.55
6528;BME280;64597;42.664;23.256;2023-02-19T01:56:51;94851.47;;;7.11;53.17
6528;BME280;64597;42.664;23.256;2023-02-19T01:59:17;94843.78;;;7.10;53.25
6528;BME280;64597;42.664;23.256;2023-02-19T02:01:43;94834.09;;;7.10;52.85
6528;BME280;64597;42.664;23.256;2023-02-19T02:04:11;94828.25;;;7.15;52.74
6528;BME280;64597;42.664;23.256;2023-02-19T02:06:49;94834.31;;;7.15;53.18
6528;BME280;64597;42.664;23.256;2023-02-19T02:09:17;94813.97;;;7.04;53.23
6528;BME280;64597;42.664;23.256;2023-02-19T02:12:02;94828.50;;;7.00;53.23
6528;BME280;64597;42.664;23.256;2023-02-19T02:14:30;94814.78;;;6.98;53.36
6528;BME280;64597;42.664;23.256;2023-02-19T02:22:24;94834.13;;;6.97;53.36
6528;BME280;64597;42.664;23.256;2023-02-19T02:30:40;94828.34;;;6.76;53.88
6528;BME280;64597;42.664;23.256;2023-02-19T02:35:52;94846.69;;;6.82;54.09
6528;BME280;64597;42.664;23.256;2023-02-19T02:38:21;94849.91;;;6.71;54.27
6528;BME280;64597;42.664;23.256;2023-02-19T02:40:48;94856.34;;;6.75;54.27
6528;BME280;64597;42.664;23.256;2023-02-19T02:43:13;94854.16;;;6.72;53.90
6528;BME280;64597;42.664;23.256;2023-02-19T02:45:39;94851.09;;;6.68;54.22
6528;BME280;64597;42.664;23.256;2023-02-19T02:50:35;94850.28;;;6.75;54.36
6528;BME280;64597;42.664;23.256;2023-02-19T02:53:06;94835.81;;;6.72;53.94
6528;BME280;64597;42.664;23.256;2023-02-19T02:55:51;94850.28;;;6.75;53.79
6528;BME280;64597;42.664;23.256;2023-02-19T02:58:21;94823.50;;;6.79;53.27
6528;BME280;64597;42.664;23.256;2023-02-19T03:00:53;94840.19;;;6.98;53.22
6528;BME280;64597;42.664;23.256;2023-02-19T03:03:41;94852.69;;;6.89;53.22
6528;BME280;64597;42.664;23.256;2023-02-19T03:06:08;94850.91;;;6.83;53.34
6528;BME280;64597;42.664;23.256;2023-02-19T03:08:37;94840.63;;;6.82;53.64
6528;BME280;64597;42.664;23.256;2023-02-19T03:11:09;94843.84;;;6.77;53.51
6528;BME280;64597;42.664;23.256;2023-02-19T03:14:02;94855.53;;;6.81;53.60
6528;BME280;64597;42.664;23.256;2023-02-19T03:16:47;94852.13;;;6.81;53.38
6528;BME280;64597;42.664;23.256;2023-02-19T03:19:35;94831.56;;;6.71;53.57
6528;BME280;64597;42.664;23.256;2023-02-19T03:22:10;94847.66;;;6.81;53.75
6528;BME280;64597;42.664;23.256;2023-02-19T03:24:40;94846.69;;;6.82;53.48
6528;BME280;64597;42.664;23.256;2023-02-19T03:27:30;94847.44;;;7.02;52.31
6528;BME280;64597;42.664;23.256;2023-02-19T03:30:02;94843.38;;;7.19;51.50
6528;BME280;64597;42.664;23.256;2023-02-19T03:32:41;94864.25;;;7.52;50.80
6528;BME280;64597;42.664;23.256;2023-02-19T03:35:12;94868.19;;;7.74;49.97
6528;BME280;64597;42.664;23.256;2023-02-19T03:37:46;94866.31;;;8.25;48.33
6528;BME280;64597;42.664;23.256;2023-02-19T03:40:15;94867.81;;;8.40;47.73
6528;BME280;64597;42.664;23.256;2023-02-19T03:43:04;94867.00;;;8.88;46.40
6528;BME280;64597;42.664;23.256;2023-02-19T03:48:32;94862.69;;;8.94;46.17
6528;BME280;64597;42.664;23.256;2023-02-19T03:51:19;94874.00;;;9.19;45.67
6528;BME280;64597;42.664;23.256;2023-02-19T03:54:06;94872.69;;;9.28;45.05
6528;BME280;64597;42.664;23.256;2023-02-19T03:56:42;94863.84;;;9.23;45.54
6528;BME280;64597;42.664;23.256;2023-02-19T04:02:07;94876.28;;;9.34;44.81
6528;BME280;64597;42.664;23.256;2023-02-19T04:04:37;94877.88;;;9.35;44.82
6528;BME280;64597;42.664;23.256;2023-02-19T04:07:04;94874.53;;;9.46;44.84
6528;BME280;64597;42.664;23.256;2023-02-19T04:09:34;94886.81;;;9.52;44.50
6528;BME280;64597;42.664;23.256;2023-02-19T04:12:02;94897.75;;;9.49;44.62
6528;BME280;64597;42.664;23.256;2023-02-19T04:14:56;94895.59;;;9.46;45.00
6528;BME280;64597;42.664;23.256;2023-02-19T04:17:38;94899.38;;;9.50;45.73
6528;BME280;64597;42.664;23.256;2023-02-19T04:20:08;94899.69;;;9.42;45.09
6528;BME280;64597;42.664;23.256;2023-02-19T04:22:35;94900.53;;;9.36;45.15
6528;BME280;64597;42.664;23.256;2023-02-19T04:25:01;94910.63;;;9.39;45.44
6528;BME280;64597;42.664;23.256;2023-02-19T04:27:26;94907.41;;;9.37;45.19
6528;BME280;64597;42.664;23.256;2023-02-19T04:29:52;94894.13;;;9.32;45.51
6528;BME280;64597;42.664;23.256;2023-02-19T04:32:17;94891.84;;;9.35;45.64
6528;BME280;64597;42.664;23.256;2023-02-19T04:34:43;94898.97;;;9.28;45.18
6528;BME280;64597;42.664;23.256;2023-02-19T04:37:08;94887.44;;;9.11;46.01
6528;BME280;64597;42.664;23.256;2023-02-19T04:39:33;94907.16;;;9.20;45.91
6528;BME280;64597;42.664;23.256;2023-02-19T04:41:59;94908.41;;;9.18;45.76
6528;BME280;64597;42.664;23.256;2023-02-19T04:44:24;94892.69;;;9.11;46.28
6528;BME280;64597;42.664;23.256;2023-02-19T04:46:50;94911.19;;;9.23;45.32
6528;BME280;64597;42.664;23.256;2023-02-19T04:49:15;94909.16;;;9.25;45.85
6528;BME280;64597;42.664;23.256;2023-02-19T04:51:40;94913.53;;;9.31;46.31
6528;BME280;64597;42.664;23.256;2023-02-19T04:54:06;94912.66;;;9.37;46.00
6528;BME280;64597;42.664;23.256;2023-02-19T04:56:32;94910.56;;;9.45;45.52
6528;BME280;64597;42.664;23.256;2023-02-19T04:58:57;94923.19;;;9.55;45.38
6528;BME280;64597;42.664;23.256;2023-02-19T05:01:23;94916.88;;;9.62;45.27
6528;BME280;64597;42.664;23.256;2023-02-19T05:03:49;94933.44;;;9.63;44.95
6528;BME280;64597;42.664;23.256;2023-02-19T05:06:15;94922.91;;;9.63;44.56
6528;BME280;64597;42.664;23.256;2023-02-19T05:08:40;94919.09;;;9.59;45.03
6528;BME280;64597;42.664;23.256;2023-02-19T05:11:07;94926.28;;;9.52;45.51
6528;BME280;64597;42.664;23.256;2023-02-19T05:13:35;94919.09;;;9.41;45.79
6528;BME280;64597;42.664;23.256;2023-02-19T05:16:06;94935.19;;;9.51;46.08
6528;BME280;64597;42.664;23.256;2023-02-19T05:18:33;94934.75;;;9.54;46.22
6528;BME280;64597;42.664;23.256;2023-02-19T05:20:59;94931.25;;;9.60;46.37
6528;BME280;64597;42.664;23.256;2023-02-19T05:23:26;94939.75;;;9.62;46.31
6528;BME280;64597;42.664;23.256;2023-02-19T05:25:52;94948.00;;;9.65;46.36
6528;BME280;64597;42.664;23.256;2023-02-19T05:28:18;94947.50;;;9.75;45.63
6528;BME280;64597;42.664;23.256;2023-02-19T05:30:49;94940.97;;;9.77;46.09
6528;BME280;64597;42.664;23.256;2023-02-19T05:33:16;94946.75;;;9.68;45.83
6528;BME280;64597;42.664;23.256;2023-02-19T05:35:49;94946.41;;;9.64;46.32
6528;BME280;64597;42.664;23.256;2023-02-19T05:38:16;94947.06;;;9.60;46.25
6528;BME280;64597;42.664;23.256;2023-02-19T05:40:42;94952.09;;;9.61;45.44
6528;BME280;64597;42.664;23.256;2023-02-19T05:43:08;94933.22;;;9.46;46.27
6528;BME280;64597;42.664;23.256;2023-02-19T05:45:34;94954.13;;;9.59;46.19
6528;BME280;64597;42.664;23.256;2023-02-19T05:48:00;94942.66;;;9.54;46.34
6528;BME280;64597;42.664;23.256;2023-02-19T05:50:25;94952.44;;;9.65;46.05
6528;BME280;64597;42.664;23.256;2023-02-19T05:52:51;94950.44;;;9.67;46.33
6528;BME280;64597;42.664;23.256;2023-02-19T05:55:16;94945.16;;;9.67;46.77
6528;BME280;64597;42.664;23.256;2023-02-19T05:57:44;94950.78;;;9.70;46.40
6528;BME280;64597;42.664;23.256;2023-02-19T06:00:11;94961.63;;;9.80;46.68
6528;BME280;64597;42.664;23.256;2023-02-19T06:02:37;94962.25;;;9.94;46.57
6528;BME280;64597;42.664;23.256;2023-02-19T06:05:03;94966.22;;;10.03;46.37
6528;BME280;64597;42.664;23.256;2023-02-19T06:07:32;94973.69;;;10.24;45.54
6528;BME280;64597;42.664;23.256;2023-02-19T06:09:58;94966.94;;;10.28;46.34
6528;BME280;64597;42.664;23.256;2023-02-19T06:12:23;94973.75;;;10.36;45.56
6528;BME280;64597;42.664;23.256;2023-02-19T06:14:49;94988.38;;;10.50;45.56
6528;BME280;64597;42.664;23.256;2023-02-19T06:17:14;94969.69;;;10.51;44.67
6528;BME280;64597;42.664;23.256;2023-02-19T06:19:41;94978.06;;;10.48;45.29
6528;BME280;64597;42.664;23.256;2023-02-19T06:22:07;94998.28;;;10.66;44.54
6528;BME280;64597;42.664;23.256;2023-02-19T06:24:32;94977.34;;;10.83;44.22
6528;BME280;64597;42.664;23.256;2023-02-19T06:26:58;94982.97;;;10.86;43.89
6528;BME280;64597;42.664;23.256;2023-02-19T06:29:23;94972.66;;;10.85;44.01
6528;BME280;64597;42.664;23.256;2023-02-19T06:31:49;94978.84;;;10.90;43.83
6528;BME280;64597;42.664;23.256;2023-02-19T06:34:15;94972.59;;;11.03;43.79
6528;BME280;64597;42.664;23.256;2023-02-19T06:36:41;94965.63;;;11.20;43.60
6528;BME280;64597;42.664;23.256;2023-02-19T06:39:06;94978.16;;;11.36;43.03
6528;BME280;64597;42.664;23.256;2023-02-19T06:41:32;94969.63;;;11.57;42.09
6528;BME280;64597;42.664;23.256;2023-02-19T06:43:58;94974.16;;;11.68;42.00
6528;BME280;64597;42.664;23.256;2023-02-19T06:46:24;94980.00;;;11.93;41.84
6528;BME280;64597;42.664;23.256;2023-02-19T06:48:49;94975.69;;;12.15;41.29
6528;BME280;64597;42.664;23.256;2023-02-19T06:51:16;94981.16;;;12.37;40.71
6528;BME280;64597;42.664;23.256;2023-02-19T06:53:48;94962.13;;;12.52;40.04
6528;BME280;64597;42.664;23.256;2023-02-19T06:58:49;94971.91;;;12.79;39.76
6528;BME280;64597;42.664;23.256;2023-02-19T07:01:15;94974.56;;;12.79;39.67
6528;BME280;64597;42.664;23.256;2023-02-19T07:03:40;94983.31;;;13.08;39.47
6528;BME280;64597;42.664;23.256;2023-02-19T07:06:06;94973.50;;;13.58;54.37
6528;BME280;64597;42.664;23.256;2023-02-19T07:08:31;94976.03;;;15.90;53.80
6528;BME280;64597;42.664;23.256;2023-02-19T07:10:57;94966.94;;;17.19;48.96
6528;BME280;64597;42.664;23.256;2023-02-19T07:13:25;94953.47;;;18.40;42.03
6528;BME280;64597;42.664;23.256;2023-02-19T07:16:05;94961.06;;;19.26;42.95
6528;BME280;64597;42.664;23.256;2023-02-19T07:18:32;94951.97;;;20.23;37.38
6528;BME280;64597;42.664;23.256;2023-02-19T07:21:05;94948.19;;;20.90;32.55
6528;BME280;64597;42.664;23.256;2023-02-19T07:23:31;94941.56;;;21.06;28.17
6528;BME280;64597;42.664;23.256;2023-02-19T07:25:57;94956.50;;;21.12;33.06
6528;BME280;64597;42.664;23.256;2023-02-19T07:28:23;94937.66;;;21.68;31.83
6528;BME280;64597;42.664;23.256;2023-02-19T07:30:48;94938.88;;;22.35;28.42
6528;BME280;64597;42.664;23.256;2023-02-19T07:33:14;94944.00;;;22.77;32.00
6528;BME280;64597;42.664;23.256;2023-02-19T07:35:46;94927.69;;;23.31;29.63
6528;BME280;64597;42.664;23.256;2023-02-19T07:38:21;94940.03;;;23.46;29.17
6528;BME280;64597;42.664;23.256;2023-02-19T07:43:16;94923.09;;;23.90;27.20
6528;BME280;64597;42.664;23.256;2023-02-19T07:45:42;94911.13;;;23.82;27.75
6528;BME280;64597;42.664;23.256;2023-02-19T07:48:07;94924.25;;;24.28;27.67
6528;BME280;64597;42.664;23.256;2023-02-19T07:50:33;94929.31;;;24.69;25.54
6528;BME280;64597;42.664;23.256;2023-02-19T07:52:58;94922.47;;;24.63;27.12
6528;BME280;64597;42.664;23.256;2023-02-19T07:55:24;94910.47;;;24.77;26.96
6528;BME280;64597;42.664;23.256;2023-02-19T07:57:49;94913.34;;;24.81;27.21
6528;BME280;64597;42.664;23.256;2023-02-19T08:00:18;94913.38;;;25.06;26.69
6528;BME280;64597;42.664;23.256;2023-02-19T08:02:45;94911.50;;;25.50;26.38
6528;BME280;64597;42.664;23.256;2023-02-19T08:05:30;94911.16;;;25.68;25.32
6528;BME280;64597;42.664;23.256;2023-02-19T08:07:57;94911.78;;;25.74;27.78
6528;BME280;64597;42.664;23.256;2023-02-19T08:10:23;94927.84;;;25.62;27.28
6528;BME280;64597;42.664;23.256;2023-02-19T08:13:10;94922.13;;;25.29;27.74
6528;BME280;64597;42.664;23.256;2023-02-19T08:15:48;94914.34;;;25.62;27.28
6528;BME280;64597;42.664;23.256;2023-02-19T08:18:14;94911.97;;;25.69;23.89
6528;BME280;64597;42.664;23.256;2023-02-19T08:20:41;94910.69;;;25.58;26.98
6528;BME280;64597;42.664;23.256;2023-02-19T08:23:07;94915.94;;;25.63;21.95
6528;BME280;64597;42.664;23.256;2023-02-19T08:25:33;94925.81;;;25.59;26.71
6528;BME280;64597;42.664;23.256;2023-02-19T08:27:58;94918.16;;;25.78;26.30
6528;BME280;64597;42.664;23.256;2023-02-19T08:30:28;94921.28;;;26.14;26.22
6528;BME280;64597;42.664;23.256;2023-02-19T08:32:54;94921.03;;;26.36;24.83
6528;BME280;64597;42.664;23.256;2023-02-19T08:35:20;94923.16;;;26.05;25.08
6528;BME280;64597;42.664;23.256;2023-02-19T08:37:46;94910.47;;;25.97;24.26
6528;BME280;64597;42.664;23.256;2023-02-19T08:40:12;94905.84;;;26.06;23.42
6528;BME280;64597;42.664;23.256;2023-02-19T08:42:37;94910.16;;;26.07;23.52
6528;BME280;64597;42.664;23.256;2023-02-19T08:45:03;94906.38;;;25.74;22.41
6528;BME280;64597;42.664;23.256;2023-02-19T08:47:28;94904.78;;;24.39;20.83
6528;BME280;64597;42.664;23.256;2023-02-19T08:49:54;94916.97;;;23.53;21.67
6528;BME280;64597;42.664;23.256;2023-02-19T08:52:19;94924.13;;;23.36;22.69
6528;BME280;64597;42.664;23.256;2023-02-19T08:54:45;94907.63;;;23.15;22.75
6528;BME280;64597;42.664;23.256;2023-02-19T08:57:10;94910.50;;;22.29;23.45
6528;BME280;64597;42.664;23.256;2023-02-19T08:59:35;94919.28;;;22.48;23.26
6528;BME280;64597;42.664;23.256;2023-02-19T09:02:01;94901.75;;;21.96;24.41
6528;BME280;64597;42.664;23.256;2023-02-19T09:04:26;94906.13;;;22.33;24.10
6528;BME280;64597;42.664;23.256;2023-02-19T09:06:52;94909.53;;;22.11;24.08
6528;BME280;64597;42.664;23.256;2023-02-19T09:09:17;94911.00;;;21.71;24.56
6528;BME280;64597;42.664;23.256;2023-02-19T09:11:43;94895.34;;;21.78;25.31
6528;BME280;64597;42.664;23.256;2023-02-19T09:14:08;94897.00;;;21.74;24.94
6528;BME280;64597;42.664;23.256;2023-02-19T09:16:34;94888.63;;;21.94;25.19
6528;BME280;64597;42.664;23.256;2023-02-19T09:19:00;94879.09;;;22.29;24.41
6528;BME280;64597;42.664;23.256;2023-02-19T09:21:26;94886.66;;;22.13;24.19
6528;BME280;64597;42.664;23.256;2023-02-19T09:23:52;94884.47;;;21.70;24.77
6528;BME280;64597;42.664;23.256;2023-02-19T09:26:17;94890.44;;;21.67;25.16
6528;BME280;64597;42.664;23.256;2023-02-19T09:28:43;94876.03;;;21.76;25.41
6528;BME280;64597;42.664;23.256;2023-02-19T09:31:13;94882.66;;;22.25;25.13
6528;BME280;64597;42.664;23.256;2023-02-19T09:33:43;94883.44;;;22.66;25.12
6528;BME280;64597;42.664;23.256;2023-02-19T09:36:09;94883.66;;;23.05;24.16
6528;BME280;64597;42.664;23.256;2023-02-19T09:38:35;94869.72;;;23.25;23.27
6528;BME280;64597;42.664;23.256;2023-02-19T09:43:41;94869.97;;;23.59;22.62
6528;BME280;64597;42.664;23.256;2023-02-19T09:46:37;94870.19;;;23.94;22.77
6528;BME280;64597;42.664;23.256;2023-02-19T09:49:12;94866.50;;;24.12;22.14
6528;BME280;64597;42.664;23.256;2023-02-19T09:51:43;94867.75;;;23.53;21.97
6528;BME280;64597;42.664;23.256;2023-02-19T09:54:19;94852.34;;;23.31;22.60
6528;BME280;64597;42.664;23.256;2023-02-19T09:56:46;94849.88;;;23.35;22.81
6528;BME280;64597;42.664;23.256;2023-02-19T09:59:19;94853.56;;;23.69;22.57
6528;BME280;64597;42.664;23.256;2023-02-19T10:01:46;94837.59;;;23.73;22.12
6528;BME280;64597;42.664;23.256;2023-02-19T10:04:13;94831.63;;;23.85;22.08
6528;BME280;64597;42.664;23.256;2023-02-19T10:06:38;94824.34;;;23.85;22.66
6528;BME280;64597;42.664;23.256;2023-02-19T10:09:16;94826.56;;;24.14;22.55
6528;BME280;64597;42.664;23.256;2023-02-19T10:11:44;94815.81;;;24.39;22.34
6528;BME280;64597;42.664;23.256;2023-02-19T10:14:16;94809.22;;;24.71;21.53
6528;BME280;64597;42.664;23.256;2023-02-19T10:16:45;94800.38;;;24.88;21.34
6528;BME280;64597;42.664;23.256;2023-02-19T10:19:13;94783.88;;;24.89;21.46
6528;BME280;64597;42.664;23.256;2023-02-19T10:21:40;94797.19;;;24.94;21.06
6528;BME280;64597;42.664;23.256;2023-02-19T10:24:07;94789.06;;;24.69;20.92
6528;BME280;64597;42.664;23.256;2023-02-19T10:26:33;94780.28;;;24.29;21.03
6528;BME280;64597;42.664;23.256;2023-02-19T10:29:02;94779.22;;;23.91;22.06
6528;BME280;64597;42.664;23.256;2023-02-19T10:31:32;94768.91;;;23.93;21.94
6528;BME280;64597;42.664;23.256;2023-02-19T10:34:00;94775.72;;;23.90;21.57
6528;BME280;64597;42.664;23.256;2023-02-19T10:36:31;94770.09;;;23.39;22.26
6528;BME280;64597;42.664;23.256;2023-02-19T10:38:58;94774.69;;;23.16;22.78
6528;BME280;64597;42.664;23.256;2023-02-19T10:41:25;94746.88;;;23.21;23.17
6528;BME280;64597;42.664;23.256;2023-02-19T10:46:26;94739.00;;;23.24;22.45
6528;BME280;64597;42.664;23.256;2023-02-19T10:49:01;94724.59;;;23.51;22.85
6528;BME280;64597;42.664;23.256;2023-02-19T10:51:34;94702.59;;;23.27;22.44
6528;BME280;64597;42.664;23.256;2023-02-19T10:56:29;94715.97;;;22.65;23.15
6528;BME280;64597;42.664;23.256;2023-02-19T10:59:23;94703.97;;;22.85;23.68
6528;BME280;64597;42.664;23.256;2023-02-19T11:02:00;94711.13;;;23.59;37.39
6528;BME280;64597;42.664;23.256;2023-02-19T11:04:31;94704.97;;;24.15;35.10
6528;BME280;64597;42.664;23.256;2023-02-19T11:07:14;94686.75;;;24.46;34.08
6528;BME280;64597;42.664;23.256;2023-02-19T11:09:43;94696.25;;;24.87;31.37
6528;BME280;64597;42.664;23.256;2023-02-19T11:12:11;94688.13;;;25.12;29.67
6528;BME280;64597;42.664;23.256;2023-02-19T11:14:41;94682.50;;;25.34;27.17
6528;BME280;64597;42.664;23.256;2023-02-19T11:17:23;94674.31;;;25.14;25.13
6528;BME280;64597;42.664;23.256;2023-02-19T11:19:57;94676.56;;;25.03;23.57
6528;BME280;64597;42.664;23.256;2023-02-19T11:22:31;94675.25;;;25.18;28.56
6528;BME280;64597;42.664;23.256;2023-02-19T11:25:05;94665.16;;;25.44;30.53
6528;BME280;64597;42.664;23.256;2023-02-19T11:27:31;94656.69;;;25.08;22.74
6528;BME280;64597;42.664;23.256;2023-02-19T11:30:22;94658.47;;;24.95;26.70
6528;BME280;64597;42.664;23.256;2023-02-19T11:32:56;94651.50;;;24.94;27.05
6528;BME280;64597;42.664;23.256;2023-02-19T11:35:22;94651.78;;;25.01;28.53
6528;BME280;64597;42.664;23.256;2023-02-19T11:37:59;94643.13;;;25.25;29.95
6528;BME280;64597;42.664;23.256;2023-02-19T11:40:36;94633.38;;;25.03;28.44
6528;BME280;64597;42.664;23.256;2023-02-19T11:43:06;94631.56;;;25.24;29.28
6528;BME280;64597;42.664;23.256;2023-02-19T11:45:51;94639.28;;;25.34;26.70
6528;BME280;64597;42.664;23.256;2023-02-19T11:48:47;94613.91;;;25.27;25.64
6528;BME280;64597;42.664;23.256;2023-02-19T12:00:20;94616.75;;;25.30;29.73
6528;BME280;64597;42.664;23.256;2023-02-19T12:05:36;94601.28;;;25.10;27.04
6528;BME280;64597;42.664;23.256;2023-02-19T12:16:41;94593.69;;;24.23;20.64
6528;BME280;64597;42.664;23.256;2023-02-19T12:27:34;94563.56;;;23.61;21.03
6528;BME280;64597;42.664;23.256;2023-02-19T12:30:30;94554.03;;;23.38;21.42
6528;BME280;64597;42.664;23.256;2023-02-19T12:36:08;94543.19;;;23.21;20.64
6528;BME280;64597;42.664;23.256;2023-02-19T12:38:44;94539.50;;;23.00;21.51
6528;BME280;64597;42.664;23.256;2023-02-19T12:44:12;94538.84;;;22.94;21.25
6528;BME280;64597;42.664;23.256;2023-02-19T12:46:45;94525.97;;;22.44;21.64
6528;BME280;64597;42.664;23.256;2023-02-19T12:49:18;94505.53;;;22.03;21.97
6528;BME280;64597;42.664;23.256;2023-02-19T12:56:45;94498.47;;;22.47;36.03
6528;BME280;64597;42.664;23.256;2023-02-19T13:01:49;94497.47;;;23.21;23.88
6528;BME280;64597;42.664;23.256;2023-02-19T13:04:25;94499.06;;;23.22;28.51
6528;BME280;64597;42.664;23.256;2023-02-19T13:07:01;94456.94;;;23.18;26.57
6528;BME280;64597;42.664;23.256;2023-02-19T13:09:52;94493.88;;;23.68;26.14
6528;BME280;64597;42.664;23.256;2023-02-19T13:12:29;94477.25;;;23.32;24.27
6528;BME280;64597;42.664;23.256;2023-02-19T13:15:03;94492.78;;;23.52;25.46
6528;BME280;64597;42.664;23.256;2023-02-19T13:17:43;94483.88;;;23.77;23.97
6528;BME280;64597;42.664;23.256;2023-02-19T13:20:23;94452.38;;;23.78;21.97
6528;BME280;64597;42.664;23.256;2023-02-19T13:22:58;94470.25;;;24.00;24.26
6528;BME280;64597;42.664;23.256;2023-02-19T13:37:15;94443.81;;;24.48;20.78
6528;BME280;64597;42.664;23.256;2023-02-19T13:39:50;94448.22;;;24.06;21.61
6528;BME280;64597;42.664;23.256;2023-02-19T13:42:25;94452.03;;;24.05;25.82
6528;BME280;64597;42.664;23.256;2023-02-19T13:44:52;94435.69;;;24.10;24.05
6528;BME280;64597;42.664;23.256;2023-02-19T13:52:54;94429.09;;;24.37;22.82
6528;BME280;64597;42.664;23.256;2023-02-19T14:03:27;94420.78;;;22.59;21.46
6528;BME280;64597;42.664;23.256;2023-02-19T14:05:59;94426.38;;;22.40;21.41
6528;BME280;64597;42.664;23.256;2023-02-19T14:08:58;94424.38;;;22.15;21.87
6528;BME280;64597;42.664;23.256;2023-02-19T14:14:27;94420.22;;;21.56;22.51
6528;BME280;64597;42.664;23.256;2023-02-19T14:19:56;94419.13;;;21.35;22.83
6528;BME280;64597;42.664;23.256;2023-02-19T14:30:28;94396.22;;;20.93;23.53
6528;BME280;64597;42.664;23.256;2023-02-19T14:32:54;94396.63;;;20.87;23.66
6528;BME280;64597;42.664;23.256;2023-02-19T14:35:24;94387.38;;;20.93;23.58
6528;BME280;64597;42.664;23.256;2023-02-19T14:37:55;94385.91;;;20.87;23.61
6528;BME280;64597;42.664;23.256;2023-02-19T14:40:41;94392.25;;;20.77;23.71
6528;BME280;64597;42.664;23.256;2023-02-19T14:43:10;94385.44;;;20.71;23.81
6528;BME280;64597;42.664;23.256;2023-02-19T14:45:44;94377.63;;;20.61;24.10
6528;BME280;64597;42.664;23.256;2023-02-19T14:48:22;94384.28;;;20.50;24.18
6528;BME280;64597;42.664;23.256;2023-02-19T14:50:51;94374.91;;;20.25;24.17
6528;BME280;64597;42.664;23.256;2023-02-19T14:53:21;94373.28;;;20.24;24.45
6528;BME280;64597;42.664;23.256;2023-02-19T14:55:49;94379.31;;;20.16;24.66
6528;BME280;64597;42.664;23.256;2023-02-19T14:58:27;94376.25;;;20.09;24.46
6528;BME280;64597;42.664;23.256;2023-02-19T15:00:54;94366.13;;;20.06;24.66
6528;BME280;64597;42.664;23.256;2023-02-19T15:06:11;94372.88;;;19.90;24.95
6528;BME280;64597;42.664;23.256;2023-02-19T15:08:51;94352.84;;;19.74;25.05
6528;BME280;64597;42.664;23.256;2023-02-19T15:11:23;94371.19;;;19.81;25.80
6528;BME280;64597;42.664;23.256;2023-02-19T15:13:53;94366.09;;;19.79;31.70
6528;BME280;64597;42.664;23.256;2023-02-19T15:16:21;94354.22;;;19.85;27.04
6528;BME280;64597;42.664;23.256;2023-02-19T15:18:49;94360.97;;;19.96;26.37
6528;BME280;64597;42.664;23.256;2023-02-19T15:21:26;94368.31;;;19.91;26.36